Trigger — WDF7822 — position and weather

sailwx.info

Track history (hours):
 
Tides and Currents Weather Stations Pressure Air Temp Water Temp Dewpoint Dewpoint Depression Visibility Wind Speed Wind Dir Waves Ship Positions

Trigger

Owner: Harley Marine Services, INC, Seattle, WA. More information available from US FCC via Universal Licensing System.

Last reported at 2017-Dec-11 16:59 UTC. Time now 2017-Dec-11 19:07 UTC.
Position N 29°45' W 095°11'.

Length 31 m; draft 3.2 m.

Type: Towing. MMSI: 367488490.

Date/timePositionNaut miles runAvg speedWind from/ knotsBaromVisibWave heightAir tempDewpointWater temp
2017-Dec-11 16:59N 29°45' W 095°11'2 0.7
2017-Dec-11 14:18N 29°44' W 095°13'1 0.7
2017-Dec-11 12:37N 29°43' W 095°14'0 0.0
2017-Dec-11 12:25N 29°43' W 095°14'0 0.0
2017-Dec-11 11:07N 29°43' W 095°14'0 0.0
2017-Dec-11 10:49N 29°43' W 095°14'0 0.0
2017-Dec-11 04:43N 29°43' W 095°14'0 0.0
2017-Dec-11 03:49N 29°43' W 095°14'0 0.0
2017-Dec-11 03:19N 29°43' W 095°14'0 0.0
2017-Dec-11 02:46N 29°43' W 095°14'1 3.2
2017-Dec-11 02:30N 29°43' W 095°15'1 1.8
2017-Dec-11 01:59N 29°44' W 095°16'0 0.0
2017-Dec-11 01:26N 29°44' W 095°16'0 0.0
2017-Dec-11 00:47N 29°44' W 095°16'0 0.0
2017-Dec-11 00:23N 29°44' W 095°16'0 0.0
2017-Dec-10 23:56N 29°44' W 095°16'0 0.0
2017-Dec-10 23:29N 29°44' W 095°16'0 0.0
2017-Dec-10 22:35N 29°44' W 095°16'0 0.0
2017-Dec-10 22:29N 29°44' W 095°16'0 0.1
2017-Dec-10 21:56N 29°44' W 095°16'0 0.0
2017-Dec-10 21:23N 29°43' W 095°16'0 0.1
2017-Dec-10 20:41N 29°44' W 095°16'0 0.0
2017-Dec-10 20:26N 29°44' W 095°16'0 0.0
2017-Dec-10 19:59N 29°44' W 095°16'0 0.0
2017-Dec-10 18:23N 29°44' W 095°16'0 0.0
2017-Dec-10 17:53N 29°44' W 095°16'0 0.0
2017-Dec-10 17:11N 29°44' W 095°16'0 0.0
2017-Dec-10 16:14N 29°44' W 095°16'0 0.0
2017-Dec-10 15:59N 29°44' W 095°16'0 0.0
2017-Dec-10 15:14N 29°44' W 095°16'0 0.0
2017-Dec-10 14:56N 29°44' W 095°16'0 0.2
2017-Dec-10 14:20N 29°44' W 095°16'1 2.0
2017-Dec-10 14:00N 29°44' W 095°15'1 1.9
2017-Dec-10 13:22N 29°43' W 095°14'0 0.0
2017-Dec-10 12:46N 29°43' W 095°14'0 0.0
2017-Dec-10 12:25N 29°43' W 095°14'0 0.0
2017-Dec-10 11:55N 29°43' W 095°14'0 0.0
2017-Dec-10 11:25N 29°43' W 095°14'0 0.0
2017-Dec-10 10:58N 29°43' W 095°14'0 0.0
2017-Dec-10 10:25N 29°43' W 095°14'0 0.0
2017-Dec-10 09:58N 29°43' W 095°14'0 0.0
2017-Dec-10 09:28N 29°43' W 095°14'0 0.0
2017-Dec-10 08:59N 29°43' W 095°14'3 6.4
2017-Dec-10 08:30N 29°45' W 095°11'3 6.5
2017-Dec-10 08:00N 29°44' W 095°07'1 0.4
2017-Dec-10 05:39N 29°45' W 095°06'2 0.2
2017-Dec-09 21:46N 29°44' W 095°08'2 0.9
2017-Dec-09 19:07N 29°45' W 095°11'0 0.0
2017-Dec-09 17:55N 29°45' W 095°11'0 0.0
2017-Dec-09 16:34N 29°45' W 095°11'0 0.0
2017-Dec-09 16:28N 29°45' W 095°11'0 0.0
2017-Dec-09 15:55N 29°45' W 095°11'0 0.0
2017-Dec-09 15:25N 29°45' W 095°11'0 0.0
2017-Dec-09 14:19N 29°45' W 095°11'1 1.7
2017-Dec-09 14:00N 29°45' W 095°10'3 5.7
2017-Dec-09 13:30N 29°44' W 095°07'3 5.0
2017-Dec-09 13:00N 29°45' W 095°04'1 2.4
2017-Dec-09 12:26N 29°44' W 095°03'0 0.0
2017-Dec-09 11:59N 29°44' W 095°03'0 0.0
2017-Dec-09 11:29N 29°44' W 095°03'0 0.0
2017-Dec-09 10:56N 29°44' W 095°03'0 0.0
2017-Dec-09 10:29N 29°44' W 095°03'0 0.0
2017-Dec-09 09:59N 29°44' W 095°03'0 0.1
2017-Dec-09 09:29N 29°44' W 095°03'0 0.0
2017-Dec-09 08:59N 29°44' W 095°03'0 0.0
2017-Dec-09 08:29N 29°44' W 095°03'0 0.0
2017-Dec-09 07:59N 29°44' W 095°03'0 0.0
2017-Dec-09 07:29N 29°44' W 095°03'0 0.0
2017-Dec-09 06:56N 29°44' W 095°03'0 0.0
2017-Dec-09 06:29N 29°44' W 095°03'0 0.0
2017-Dec-09 05:59N 29°44' W 095°03'0 0.0
2017-Dec-09 05:29N 29°44' W 095°03'0 0.0
2017-Dec-09 04:59N 29°44' W 095°03'0 0.0
2017-Dec-09 04:29N 29°44' W 095°03'0 0.0
2017-Dec-09 03:56N 29°44' W 095°03'0 0.0
2017-Dec-09 03:29N 29°44' W 095°03'0 0.0
2017-Dec-09 02:59N 29°44' W 095°03'0 0.0
2017-Dec-09 02:23N 29°44' W 095°03'0 0.0
2017-Dec-09 01:59N 29°44' W 095°03'0 0.0
2017-Dec-09 01:29N 29°44' W 095°03'0 0.1
2017-Dec-09 00:53N 29°44' W 095°03'0 0.2
2017-Dec-09 00:29N 29°44' W 095°03'0 0.0
2017-Dec-08 23:59N 29°44' W 095°03'0 0.0
2017-Dec-08 23:29N 29°44' W 095°03'0 0.0
2017-Dec-08 22:59N 29°44' W 095°03'0 0.0
2017-Dec-08 22:29N 29°44' W 095°03'0 0.0
2017-Dec-08 21:59N 29°44' W 095°03'0 0.0
2017-Dec-08 21:29N 29°44' W 095°03'0 0.0
2017-Dec-08 20:59N 29°44' W 095°03'0 0.0
2017-Dec-08 20:29N 29°44' W 095°03'0 0.0
2017-Dec-08 19:59N 29°44' W 095°03'0 0.0
2017-Dec-08 19:29N 29°44' W 095°03'3 4.8
2017-Dec-08 18:55N 29°46' W 095°05'3 5.6
2017-Dec-08 18:24N 29°44' W 095°08'3 7.5
2017-Dec-08 17:59N 29°45' W 095°12'2 0.4
2017-Dec-08 12:27N 29°43' W 095°14'0 0.0
2017-Dec-08 11:57N 29°43' W 095°14'0 0.0
2017-Dec-08 11:30N 29°43' W 095°14'0 0.0
2017-Dec-08 11:00N 29°43' W 095°14'0 0.0
2017-Dec-08 10:30N 29°43' W 095°14'0 0.0
2017-Dec-08 09:57N 29°43' W 095°14'0 0.0
2017-Dec-08 09:27N 29°43' W 095°14'0 0.0
2017-Dec-08 09:00N 29°43' W 095°14'0 0.0
2017-Dec-08 08:27N 29°43' W 095°14'0 0.0
2017-Dec-08 07:54N 29°43' W 095°14'0 0.0
2017-Dec-08 07:24N 29°43' W 095°14'0 0.0
2017-Dec-08 06:57N 29°43' W 095°14'0 0.0
2017-Dec-08 06:27N 29°43' W 095°14'0 0.0
2017-Dec-08 06:00N 29°43' W 095°14'0 0.0
2017-Dec-08 05:15N 29°43' W 095°14'0 0.0
2017-Dec-08 05:00N 29°43' W 095°14'0 0.0
2017-Dec-08 04:24N 29°43' W 095°14'0 0.0
2017-Dec-08 04:00N 29°43' W 095°14'0 0.0
2017-Dec-08 03:30N 29°43' W 095°14'0 0.0
2017-Dec-08 03:00N 29°43' W 095°14'0 0.0
2017-Dec-08 02:27N 29°43' W 095°14'0 0.0
2017-Dec-08 01:36N 29°43' W 095°14'0 0.0
2017-Dec-08 01:27N 29°43' W 095°14'0 0.0
2017-Dec-08 01:00N 29°43' W 095°14'0 0.0
2017-Dec-07 11:12N 29°43' W 095°14'0 0.0
2017-Dec-07 10:48N 29°43' W 095°14'0 0.0
2017-Dec-07 10:12N 29°43' W 095°14'0 0.0
2017-Dec-07 09:54N 29°43' W 095°14'0 0.0
2017-Dec-07 09:30N 29°43' W 095°14'0 0.0
2017-Dec-07 08:54N 29°43' W 095°14'0 0.0
2017-Dec-07 08:30N 29°43' W 095°14'0 0.0
2017-Dec-07 07:54N 29°43' W 095°14'0 0.0
2017-Dec-07 07:18N 29°43' W 095°14'0 0.0
2017-Dec-07 06:57N 29°43' W 095°14'0 0.0
2017-Dec-07 06:30N 29°43' W 095°14'0 0.0
2017-Dec-07 05:30N 29°43' W 095°14'0 0.0
2017-Dec-07 04:54N 29°43' W 095°14'0 0.0
2017-Dec-07 03:42N 29°43' W 095°14'0 0.0
2017-Dec-07 03:12N 29°43' W 095°14'0 0.0
2017-Dec-07 02:54N 29°43' W 095°14'0 0.0
2017-Dec-07 02:30N 29°43' W 095°14'0 0.0
2017-Dec-07 01:54N 29°43' W 095°14'0 0.0
2017-Dec-07 01:30N 29°43' W 095°14'0 0.9
2017-Dec-07 00:57N 29°43' W 095°14'2 4.9
2017-Dec-07 00:30N 29°44' W 095°17'1 1.6
2017-Dec-07 00:00N 29°45' W 095°17'0 0.0
2017-Dec-06 23:30N 29°45' W 095°17'0 0.0
2017-Dec-06 22:57N 29°45' W 095°17'0 0.0
2017-Dec-06 22:30N 29°45' W 095°17'0 0.0
2017-Dec-06 22:00N 29°45' W 095°17'0 0.0
2017-Dec-06 21:30N 29°45' W 095°17'0 0.0
2017-Dec-06 20:57N 29°45' W 095°17'  
2017-Dec-03 05:58N 29°46' W 095°06'2 3.9
2017-Dec-03 05:29N 29°44' W 095°07'1 0.1
2017-Dec-02 23:37N 29°44' W 095°08'1 4.6
2017-Dec-02 23:28N 29°44' W 095°07'2 0.1
2017-Dec-02 06:39N 29°47' W 095°06'  
Track history (hours):
 
Tides and Currents Weather Stations Pressure Air Temp Water Temp Dewpoint Dewpoint Depression Visibility Wind Speed Wind Dir Waves Ship Positions

Trigger

Owner: Harley Marine Services, INC, Seattle, WA. More information available from US FCC via Universal Licensing System.

Last reported at 2017-Dec-11 16:59 UTC. Time now 2017-Dec-11 19:07 UTC.
Position N 29°45' W 095°11'.

Length 31 m; draft 3.2 m.

Type: Towing. MMSI: 367488490.

Date/timePositionNaut miles runAvg speedWind from/ knotsBaromVisibWave heightAir tempDewpointWater temp
2017-Dec-11 16:59N 29°45' W 095°11'2 0.7
2017-Dec-11 14:18N 29°44' W 095°13'1 0.7
2017-Dec-11 12:37N 29°43' W 095°14'0 0.0
2017-Dec-11 12:25N 29°43' W 095°14'0 0.0
2017-Dec-11 11:07N 29°43' W 095°14'0 0.0
2017-Dec-11 10:49N 29°43' W 095°14'0 0.0
2017-Dec-11 04:43N 29°43' W 095°14'0 0.0
2017-Dec-11 03:49N 29°43' W 095°14'0 0.0
2017-Dec-11 03:19N 29°43' W 095°14'0 0.0
2017-Dec-11 02:46N 29°43' W 095°14'1 3.2
2017-Dec-11 02:30N 29°43' W 095°15'1 1.8
2017-Dec-11 01:59N 29°44' W 095°16'0 0.0
2017-Dec-11 01:26N 29°44' W 095°16'0 0.0
2017-Dec-11 00:47N 29°44' W 095°16'0 0.0
2017-Dec-11 00:23N 29°44' W 095°16'0 0.0
2017-Dec-10 23:56N 29°44' W 095°16'0 0.0
2017-Dec-10 23:29N 29°44' W 095°16'0 0.0
2017-Dec-10 22:35N 29°44' W 095°16'0 0.0
2017-Dec-10 22:29N 29°44' W 095°16'0 0.1
2017-Dec-10 21:56N 29°44' W 095°16'0 0.0
2017-Dec-10 21:23N 29°43' W 095°16'0 0.1
2017-Dec-10 20:41N 29°44' W 095°16'0 0.0
2017-Dec-10 20:26N 29°44' W 095°16'0 0.0
2017-Dec-10 19:59N 29°44' W 095°16'0 0.0
2017-Dec-10 18:23N 29°44' W 095°16'0 0.0
2017-Dec-10 17:53N 29°44' W 095°16'0 0.0
2017-Dec-10 17:11N 29°44' W 095°16'0 0.0
2017-Dec-10 16:14N 29°44' W 095°16'0 0.0
2017-Dec-10 15:59N 29°44' W 095°16'0 0.0
2017-Dec-10 15:14N 29°44' W 095°16'0 0.0
2017-Dec-10 14:56N 29°44' W 095°16'0 0.2
2017-Dec-10 14:20N 29°44' W 095°16'1 2.0
2017-Dec-10 14:00N 29°44' W 095°15'1 1.9
2017-Dec-10 13:22N 29°43' W 095°14'0 0.0
2017-Dec-10 12:46N 29°43' W 095°14'0 0.0
2017-Dec-10 12:25N 29°43' W 095°14'0 0.0
2017-Dec-10 11:55N 29°43' W 095°14'0 0.0
2017-Dec-10 11:25N 29°43' W 095°14'0 0.0
2017-Dec-10 10:58N 29°43' W 095°14'0 0.0
2017-Dec-10 10:25N 29°43' W 095°14'0 0.0
2017-Dec-10 09:58N 29°43' W 095°14'0 0.0
2017-Dec-10 09:28N 29°43' W 095°14'0 0.0
2017-Dec-10 08:59N 29°43' W 095°14'3 6.4
2017-Dec-10 08:30N 29°45' W 095°11'3 6.5
2017-Dec-10 08:00N 29°44' W 095°07'1 0.4
2017-Dec-10 05:39N 29°45' W 095°06'2 0.2
2017-Dec-09 21:46N 29°44' W 095°08'2 0.9
2017-Dec-09 19:07N 29°45' W 095°11'0 0.0
2017-Dec-09 17:55N 29°45' W 095°11'0 0.0
2017-Dec-09 16:34N 29°45' W 095°11'0 0.0
2017-Dec-09 16:28N 29°45' W 095°11'0 0.0
2017-Dec-09 15:55N 29°45' W 095°11'0 0.0
2017-Dec-09 15:25N 29°45' W 095°11'0 0.0
2017-Dec-09 14:19N 29°45' W 095°11'1 1.7
2017-Dec-09 14:00N 29°45' W 095°10'3 5.7
2017-Dec-09 13:30N 29°44' W 095°07'3 5.0
2017-Dec-09 13:00N 29°45' W 095°04'1 2.4
2017-Dec-09 12:26N 29°44' W 095°03'0 0.0
2017-Dec-09 11:59N 29°44' W 095°03'0 0.0
2017-Dec-09 11:29N 29°44' W 095°03'0 0.0
2017-Dec-09 10:56N 29°44' W 095°03'0 0.0
2017-Dec-09 10:29N 29°44' W 095°03'0 0.0
2017-Dec-09 09:59N 29°44' W 095°03'0 0.1
2017-Dec-09 09:29N 29°44' W 095°03'0 0.0
2017-Dec-09 08:59N 29°44' W 095°03'0 0.0
2017-Dec-09 08:29N 29°44' W 095°03'0 0.0
2017-Dec-09 07:59N 29°44' W 095°03'0 0.0
2017-Dec-09 07:29N 29°44' W 095°03'0 0.0
2017-Dec-09 06:56N 29°44' W 095°03'0 0.0
2017-Dec-09 06:29N 29°44' W 095°03'0 0.0
2017-Dec-09 05:59N 29°44' W 095°03'0 0.0
2017-Dec-09 05:29N 29°44' W 095°03'0 0.0
2017-Dec-09 04:59N 29°44' W 095°03'0 0.0
2017-Dec-09 04:29N 29°44' W 095°03'0 0.0
2017-Dec-09 03:56N 29°44' W 095°03'0 0.0
2017-Dec-09 03:29N 29°44' W 095°03'0 0.0
2017-Dec-09 02:59N 29°44' W 095°03'0 0.0
2017-Dec-09 02:23N 29°44' W 095°03'0 0.0
2017-Dec-09 01:59N 29°44' W 095°03'0 0.0
2017-Dec-09 01:29N 29°44' W 095°03'0 0.1
2017-Dec-09 00:53N 29°44' W 095°03'0 0.2
2017-Dec-09 00:29N 29°44' W 095°03'0 0.0
2017-Dec-08 23:59N 29°44' W 095°03'0 0.0
2017-Dec-08 23:29N 29°44' W 095°03'0 0.0
2017-Dec-08 22:59N 29°44' W 095°03'0 0.0
2017-Dec-08 22:29N 29°44' W 095°03'0 0.0
2017-Dec-08 21:59N 29°44' W 095°03'0 0.0
2017-Dec-08 21:29N 29°44' W 095°03'0 0.0
2017-Dec-08 20:59N 29°44' W 095°03'0 0.0
2017-Dec-08 20:29N 29°44' W 095°03'0 0.0
2017-Dec-08 19:59N 29°44' W 095°03'0 0.0
2017-Dec-08 19:29N 29°44' W 095°03'3 4.8
2017-Dec-08 18:55N 29°46' W 095°05'3 5.6
2017-Dec-08 18:24N 29°44' W 095°08'3 7.5
2017-Dec-08 17:59N 29°45' W 095°12'2 0.4
2017-Dec-08 12:27N 29°43' W 095°14'0 0.0
2017-Dec-08 11:57N 29°43' W 095°14'0 0.0
2017-Dec-08 11:30N 29°43' W 095°14'0 0.0
2017-Dec-08 11:00N 29°43' W 095°14'0 0.0
2017-Dec-08 10:30N 29°43' W 095°14'0 0.0
2017-Dec-08 09:57N 29°43' W 095°14'0 0.0
2017-Dec-08 09:27N 29°43' W 095°14'0 0.0
2017-Dec-08 09:00N 29°43' W 095°14'0 0.0
2017-Dec-08 08:27N 29°43' W 095°14'0 0.0
2017-Dec-08 07:54N 29°43' W 095°14'0 0.0
2017-Dec-08 07:24N 29°43' W 095°14'0 0.0
2017-Dec-08 06:57N 29°43' W 095°14'0 0.0
2017-Dec-08 06:27N 29°43' W 095°14'0 0.0
2017-Dec-08 06:00N 29°43' W 095°14'0 0.0
2017-Dec-08 05:15N 29°43' W 095°14'0 0.0
2017-Dec-08 05:00N 29°43' W 095°14'0 0.0
2017-Dec-08 04:24N 29°43' W 095°14'0 0.0
2017-Dec-08 04:00N 29°43' W 095°14'0 0.0
2017-Dec-08 03:30N 29°43' W 095°14'0 0.0
2017-Dec-08 03:00N 29°43' W 095°14'0 0.0
2017-Dec-08 02:27N 29°43' W 095°14'0 0.0
2017-Dec-08 01:36N 29°43' W 095°14'0 0.0
2017-Dec-08 01:27N 29°43' W 095°14'0 0.0
2017-Dec-08 01:00N 29°43' W 095°14'0 0.0
2017-Dec-07 11:12N 29°43' W 095°14'0 0.0
2017-Dec-07 10:48N 29°43' W 095°14'0 0.0
2017-Dec-07 10:12N 29°43' W 095°14'0 0.0
2017-Dec-07 09:54N 29°43' W 095°14'0 0.0
2017-Dec-07 09:30N 29°43' W 095°14'0 0.0
2017-Dec-07 08:54N 29°43' W 095°14'0 0.0
2017-Dec-07 08:30N 29°43' W 095°14'0 0.0
2017-Dec-07 07:54N 29°43' W 095°14'0 0.0
2017-Dec-07 07:18N 29°43' W 095°14'0 0.0
2017-Dec-07 06:57N 29°43' W 095°14'0 0.0
2017-Dec-07 06:30N 29°43' W 095°14'0 0.0
2017-Dec-07 05:30N 29°43' W 095°14'0 0.0
2017-Dec-07 04:54N 29°43' W 095°14'0 0.0
2017-Dec-07 03:42N 29°43' W 095°14'0 0.0
2017-Dec-07 03:12N 29°43' W 095°14'0 0.0
2017-Dec-07 02:54N 29°43' W 095°14'0 0.0
2017-Dec-07 02:30N 29°43' W 095°14'0 0.0
2017-Dec-07 01:54N 29°43' W 095°14'0 0.0
2017-Dec-07 01:30N 29°43' W 095°14'0 0.9
2017-Dec-07 00:57N 29°43' W 095°14'2 4.9
2017-Dec-07 00:30N 29°44' W 095°17'1 1.6
2017-Dec-07 00:00N 29°45' W 095°17'0 0.0
2017-Dec-06 23:30N 29°45' W 095°17'0 0.0
2017-Dec-06 22:57N 29°45' W 095°17'0 0.0
2017-Dec-06 22:30N 29°45' W 095°17'0 0.0
2017-Dec-06 22:00N 29°45' W 095°17'0 0.0
2017-Dec-06 21:30N 29°45' W 095°17'0 0.0
2017-Dec-06 20:57N 29°45' W 095°17'  
2017-Dec-03 05:58N 29°46' W 095°06'2 3.9
2017-Dec-03 05:29N 29°44' W 095°07'1 0.1
2017-Dec-02 23:37N 29°44' W 095°08'1 4.6
2017-Dec-02 23:28N 29°44' W 095°07'2 0.1
2017-Dec-02 06:39N 29°47' W 095°06'  

Dump ship's entire track history